createdAt,value
2022-12-22T00:01:38.793Z,49.22
2022-12-22T00:04:28.999Z,45.92
2022-12-22T00:07:14.381Z,50.65
2022-12-22T00:09:59.581Z,52.35
2022-12-22T00:12:46.122Z,53.10
2022-12-22T00:15:35.545Z,54.67
2022-12-22T00:18:21.745Z,58.45
2022-12-22T00:21:07.091Z,51.97
2022-12-22T00:23:52.418Z,53.38
2022-12-22T00:26:38.556Z,55.63
2022-12-22T00:29:23.877Z,60.55
2022-12-22T00:32:09.591Z,55.08
2022-12-22T00:35:04.051Z,56.17
2022-12-22T00:37:53.799Z,58.38
2022-12-22T00:40:42.128Z,67.72
2022-12-22T00:43:27.231Z,65.03
2022-12-22T00:46:12.486Z,70.20
2022-12-22T00:49:00.553Z,74.50
2022-12-22T00:51:46.733Z,72.55
2022-12-22T00:54:34.332Z,76.88
2022-12-22T00:57:20.745Z,81.90
2022-12-22T01:00:07.850Z,84.93
2022-12-22T01:02:53.684Z,85.72
2022-12-22T01:05:39.330Z,84.38
2022-12-22T01:08:24.426Z,77.03
2022-12-22T01:11:09.859Z,73.88
2022-12-22T01:13:54.853Z,78.72
2022-12-22T01:16:40.103Z,76.43
2022-12-22T01:19:25.244Z,61.13
2022-12-22T01:22:10.012Z,45.50
2022-12-22T01:24:55.550Z,44.00
2022-12-22T01:27:41.048Z,37.28
2022-12-22T01:30:27.444Z,35.78
2022-12-22T01:33:12.594Z,32.63
2022-12-22T01:35:57.885Z,32.17
2022-12-22T01:38:43.121Z,47.63
2022-12-22T01:41:34.498Z,64.57
2022-12-22T01:44:19.652Z,70.78
2022-12-22T01:47:06.049Z,57.83
2022-12-22T01:49:59.528Z,63.78
2022-12-22T01:52:50.167Z,67.60
2022-12-22T01:55:38.532Z,72.25
2022-12-22T01:58:35.602Z,73.70
2022-12-22T02:01:20.742Z,71.55
2022-12-22T02:04:05.936Z,74.18
2022-12-22T02:07:00.032Z,69.63
2022-12-22T02:09:59.700Z,69.60
2022-12-22T02:12:57.679Z,69.88
2022-12-22T02:16:06.942Z,67.65
2022-12-22T02:19:05.705Z,63.70
2022-12-22T02:22:16.508Z,66.68
2022-12-22T02:25:08.491Z,57.35
2022-12-22T02:27:58.283Z,58.53
2022-12-22T02:30:45.916Z,62.47
2022-12-22T02:33:31.441Z,60.90
2022-12-22T02:36:19.646Z,58.45
2022-12-22T02:39:16.955Z,58.85
2022-12-22T02:42:15.227Z,55.80
2022-12-22T02:45:12.632Z,55.30
2022-12-22T02:48:06.673Z,49.65
2022-12-22T02:51:02.409Z,50.00
2022-12-22T02:53:49.115Z,51.45
2022-12-22T02:56:34.687Z,53.92
2022-12-22T02:59:20.008Z,52.63
2022-12-22T03:02:05.840Z,50.97
2022-12-22T03:04:50.934Z,58.17
2022-12-22T03:07:36.276Z,56.92
2022-12-22T03:10:21.647Z,56.80
2022-12-22T03:13:06.805Z,55.63
2022-12-22T03:15:52.138Z,53.53
2022-12-22T03:18:37.287Z,54.00
2022-12-22T03:21:23.005Z,54.25
2022-12-22T03:24:08.271Z,52.47
2022-12-22T03:26:34.866Z,53.15
2022-12-22T03:29:01.607Z,56.25
2022-12-22T03:31:28.267Z,55.40
2022-12-22T03:33:55.174Z,56.03
2022-12-22T03:36:21.910Z,57.90
2022-12-22T03:38:48.533Z,57.65
2022-12-22T03:41:33.697Z,54.13
2022-12-22T03:44:19.239Z,55.15
2022-12-22T03:46:46.038Z,56.90
2022-12-22T03:49:12.825Z,61.88
2022-12-22T03:51:45.457Z,60.13
2022-12-22T03:54:15.118Z,59.20
2022-12-22T03:56:42.487Z,59.70
2022-12-22T03:59:10.077Z,59.45
2022-12-22T04:01:48.809Z,59.33
2022-12-22T04:04:17.858Z,58.97
2022-12-22T04:06:45.297Z,59.05
2022-12-22T04:09:12.161Z,60.78
2022-12-22T04:11:57.317Z,59.25
2022-12-22T04:14:28.107Z,58.83
2022-12-22T04:16:59.937Z,60.38
2022-12-22T04:19:26.705Z,60.22
2022-12-22T04:21:54.787Z,59.30
2022-12-22T04:24:22.371Z,57.17
2022-12-22T04:26:49.750Z,58.15
2022-12-22T04:29:16.610Z,55.60
2022-12-22T04:31:43.853Z,58.45
2022-12-22T04:34:10.608Z,48.85
2022-12-22T04:36:37.329Z,44.28
2022-12-22T04:39:04.310Z,36.75
2022-12-22T04:41:31.296Z,46.80
2022-12-22T04:43:58.038Z,52.55
2022-12-22T04:46:24.836Z,52.95
2022-12-22T04:48:56.196Z,54.55
2022-12-22T04:51:26.509Z,54.10
2022-12-22T04:53:53.265Z,50.75
2022-12-22T04:56:19.895Z,49.45
2022-12-22T04:58:46.548Z,47.58
2022-12-22T05:01:16.532Z,50.53
2022-12-22T05:03:43.323Z,44.08
2022-12-22T05:06:12.086Z,44.00
2022-12-22T05:08:38.757Z,44.70
2022-12-22T05:11:05.748Z,44.83
2022-12-22T05:13:32.901Z,42.05
2022-12-22T05:16:12.998Z,39.20
2022-12-22T05:18:41.400Z,43.22
2022-12-22T05:21:15.957Z,41.90
2022-12-22T05:23:43.252Z,38.33
2022-12-22T05:26:10.414Z,41.58
2022-12-22T05:28:37.749Z,38.60
2022-12-22T05:31:06.767Z,42.55
2022-12-22T05:33:34.213Z,40.33
2022-12-22T05:36:01.164Z,44.20
2022-12-22T05:38:28.155Z,44.85
2022-12-22T05:40:59.914Z,43.65
2022-12-22T05:43:30.139Z,44.70
2022-12-22T05:45:58.665Z,49.75
2022-12-22T05:48:30.853Z,49.28
2022-12-22T05:51:00.662Z,44.95
2022-12-22T05:53:27.478Z,45.63
2022-12-22T05:55:54.207Z,43.38
2022-12-22T05:58:20.990Z,46.38
2022-12-22T06:00:47.540Z,48.35
2022-12-22T06:03:14.374Z,46.67
2022-12-22T06:05:41.657Z,42.75
2022-12-22T06:08:08.303Z,44.92
2022-12-22T06:10:35.309Z,48.38
2022-12-22T06:13:02.072Z,52.28
2022-12-22T06:15:28.697Z,52.63
2022-12-22T06:17:55.388Z,51.67
2022-12-22T06:20:22.153Z,47.88
2022-12-22T06:22:48.853Z,49.45
2022-12-22T06:25:18.370Z,46.85
2022-12-22T06:27:45.917Z,43.13
2022-12-22T06:30:12.807Z,48.05
2022-12-22T06:32:39.704Z,46.65
2022-12-22T06:35:07.812Z,47.65
2022-12-22T06:37:34.795Z,48.03
2022-12-22T06:40:02.442Z,48.60
2022-12-22T06:42:47.502Z,48.97
2022-12-22T06:45:14.179Z,45.90
2022-12-22T06:47:40.758Z,49.45
2022-12-22T06:50:08.050Z,49.38
2022-12-22T06:52:34.800Z,47.78
2022-12-22T06:55:02.315Z,47.33
2022-12-22T06:57:29.430Z,47.70
2022-12-22T06:59:57.965Z,47.22
2022-12-22T07:02:25.205Z,47.38
2022-12-22T07:04:52.167Z,46.97
2022-12-22T07:07:18.921Z,47.42
2022-12-22T07:09:45.610Z,57.00
2022-12-22T07:12:13.216Z,67.68
2022-12-22T07:14:39.893Z,65.82
2022-12-22T07:17:06.604Z,67.40
2022-12-22T07:19:34.386Z,67.97
2022-12-22T07:22:01.161Z,67.50
2022-12-22T07:24:29.403Z,66.30
2022-12-22T07:26:56.330Z,70.07
2022-12-22T07:29:23.200Z,65.85
2022-12-22T07:31:50.004Z,68.90
2022-12-22T07:34:16.709Z,64.82
2022-12-22T07:36:43.432Z,63.72
2022-12-22T07:39:11.877Z,62.97
2022-12-22T07:41:57.037Z,58.97
2022-12-22T07:44:24.412Z,62.83
2022-12-22T07:46:51.171Z,57.97
2022-12-22T07:49:36.587Z,60.35
2022-12-22T07:52:03.363Z,58.50
2022-12-22T07:54:30.137Z,60.70
2022-12-22T07:56:57.005Z,62.22
2022-12-22T07:59:23.938Z,61.75
2022-12-22T08:01:50.832Z,64.88
2022-12-22T08:04:17.797Z,60.08
2022-12-22T08:06:44.788Z,60.08
2022-12-22T08:09:17.352Z,60.40
2022-12-22T08:11:44.244Z,59.67
2022-12-22T08:14:10.822Z,59.25
2022-12-22T08:16:37.603Z,58.35
2022-12-22T08:19:04.400Z,58.38
2022-12-22T08:21:31.050Z,57.97
2022-12-22T08:23:57.842Z,57.17
2022-12-22T08:26:35.998Z,60.20
2022-12-22T08:29:08.336Z,54.33
2022-12-22T08:31:35.388Z,56.60
2022-12-22T08:34:04.706Z,56.38
2022-12-22T08:36:36.792Z,53.15
2022-12-22T08:39:04.667Z,54.45
2022-12-22T08:41:50.182Z,54.38
2022-12-22T08:44:24.024Z,55.05
2022-12-22T08:46:51.499Z,61.47
2022-12-22T08:49:19.108Z,61.25
2022-12-22T08:51:46.319Z,65.88
2022-12-22T08:54:13.380Z,63.15
2022-12-22T08:56:40.582Z,63.42
2022-12-22T08:59:07.933Z,66.07
2022-12-22T09:01:37.416Z,66.43
2022-12-22T09:04:04.967Z,64.47
2022-12-22T09:06:38.613Z,67.10
2022-12-22T09:09:09.816Z,63.20
2022-12-22T09:11:36.613Z,68.05
2022-12-22T09:14:04.132Z,66.03
2022-12-22T09:16:33.598Z,70.00
2022-12-22T09:19:01.387Z,65.50
2022-12-22T09:21:29.131Z,67.20
2022-12-22T09:23:56.900Z,65.95
2022-12-22T09:26:25.787Z,61.25
2022-12-22T09:28:53.456Z,65.13
2022-12-22T09:31:23.116Z,64.38
2022-12-22T09:33:49.888Z,62.53
2022-12-22T09:36:19.426Z,58.78
2022-12-22T09:38:46.458Z,58.22
2022-12-22T09:41:20.195Z,54.90
2022-12-22T09:43:47.765Z,55.08
2022-12-22T09:46:23.924Z,52.42
2022-12-22T09:48:51.207Z,52.10
2022-12-22T09:51:24.398Z,58.47
2022-12-22T09:53:57.473Z,60.08
2022-12-22T09:56:26.383Z,58.65
2022-12-22T09:58:53.128Z,57.88
2022-12-22T10:01:37.531Z,57.85
2022-12-22T10:04:30.778Z,58.95
2022-12-22T10:07:22.368Z,61.97
2022-12-22T10:09:51.202Z,58.58
2022-12-22T10:12:23.422Z,60.80
2022-12-22T10:14:52.708Z,64.55
2022-12-22T10:17:28.292Z,62.75
2022-12-22T10:20:29.882Z,61.72
2022-12-22T10:23:07.014Z,64.75
2022-12-22T10:29:06.268Z,64.68
2022-12-22T10:31:35.187Z,67.38
2022-12-22T10:34:14.744Z,63.83
2022-12-22T10:36:47.266Z,67.45
2022-12-22T10:39:29.740Z,64.88
2022-12-22T10:42:10.305Z,67.93
2022-12-22T10:44:38.687Z,66.22
2022-12-22T10:47:17.651Z,68.57
2022-12-22T10:49:47.855Z,68.32
2022-12-22T10:52:29.436Z,66.25
2022-12-22T10:55:26.064Z,65.57
2022-12-22T10:58:13.951Z,64.63
2022-12-22T11:00:41.758Z,65.63
2022-12-22T11:03:12.126Z,59.88
2022-12-22T11:05:39.158Z,64.03
2022-12-22T11:08:26.421Z,61.97
2022-12-22T11:11:08.397Z,61.20
2022-12-22T11:13:35.786Z,60.63
2022-12-22T11:16:23.742Z,58.28
2022-12-22T11:19:11.404Z,60.80
2022-12-22T11:21:56.165Z,53.28
2022-12-22T11:24:53.301Z,55.95
2022-12-22T11:27:25.683Z,56.70
2022-12-22T11:30:07.825Z,56.22
2022-12-22T11:33:05.479Z,53.00
2022-12-22T11:35:49.133Z,53.58
2022-12-22T11:38:48.802Z,52.30
2022-12-22T11:41:18.261Z,54.20
2022-12-22T11:44:21.540Z,55.42
2022-12-22T11:46:58.098Z,52.47
2022-12-22T11:49:30.445Z,51.50
2022-12-22T11:51:57.079Z,55.08
2022-12-22T11:54:32.747Z,52.08
2022-12-22T11:57:15.753Z,52.92
2022-12-22T11:59:49.780Z,54.05
2022-12-22T12:02:40.867Z,53.55
2022-12-22T12:05:31.974Z,50.75
2022-12-22T12:08:24.269Z,51.10
2022-12-22T12:11:12.623Z,50.65
2022-12-22T12:13:50.403Z,49.33
2022-12-22T12:16:39.469Z,51.08
2022-12-22T12:19:47.809Z,50.67
2022-12-22T12:22:18.429Z,47.83
2022-12-22T12:25:01.017Z,51.92
2022-12-22T12:27:46.431Z,48.88
2022-12-22T12:33:21.254Z,50.63
2022-12-22T12:35:59.841Z,49.63
2022-12-22T12:41:31.246Z,48.22
2022-12-22T12:43:59.225Z,49.60
2022-12-22T12:46:44.763Z,49.15
2022-12-22T12:49:50.529Z,50.63
2022-12-22T12:52:17.744Z,50.58
2022-12-22T12:54:47.375Z,50.65
2022-12-22T12:57:45.505Z,51.45
2022-12-22T13:00:34.059Z,52.47
2022-12-22T13:03:03.730Z,51.03
2022-12-22T13:05:36.648Z,50.78
2022-12-22T13:08:06.667Z,51.88
2022-12-22T13:10:58.620Z,52.53
2022-12-22T13:13:25.407Z,52.90
2022-12-22T13:16:01.818Z,55.35
2022-12-22T13:18:34.599Z,54.97
2022-12-22T13:21:50.287Z,58.13
2022-12-22T13:24:24.101Z,56.60
2022-12-22T13:26:52.187Z,58.28
2022-12-22T13:29:26.213Z,55.50
2022-12-22T13:31:56.782Z,55.85
2022-12-22T13:35:20.672Z,55.90
2022-12-22T13:37:43.658Z,54.08
2022-12-22T13:40:17.617Z,57.67
2022-12-22T13:42:56.403Z,53.78
2022-12-22T13:45:47.717Z,55.97
2022-12-22T13:48:20.179Z,55.08
2022-12-22T13:50:56.588Z,51.70
2022-12-22T13:56:23.237Z,52.28
2022-12-22T13:58:59.769Z,49.28
2022-12-22T14:01:26.806Z,50.38
2022-12-22T14:04:03.630Z,51.35
2022-12-22T14:06:40.128Z,50.50
2022-12-22T14:09:24.709Z,50.13
2022-12-22T14:12:05.303Z,49.25
2022-12-22T14:14:38.087Z,48.65
2022-12-22T14:17:06.613Z,50.80
2022-12-22T14:19:37.411Z,48.55
2022-12-22T14:22:12.169Z,51.17
2022-12-22T14:24:48.066Z,51.20
2022-12-22T14:27:40.556Z,47.92
2022-12-22T14:30:27.055Z,46.65
2022-12-22T14:32:56.332Z,48.42
2022-12-22T14:35:27.196Z,47.03
2022-12-22T14:38:19.884Z,46.00
2022-12-22T14:40:52.479Z,44.60
2022-12-22T14:43:30.608Z,45.30
2022-12-22T14:46:08.916Z,46.03
2022-12-22T14:48:39.932Z,47.35
2022-12-22T14:51:07.537Z,45.15
2022-12-22T14:53:45.503Z,45.38
2022-12-22T14:56:14.304Z,44.45
2022-12-22T14:58:42.807Z,45.65
2022-12-22T15:01:20.626Z,46.53
2022-12-22T15:04:02.540Z,47.97
2022-12-22T15:06:29.360Z,44.78
2022-12-22T15:09:07.673Z,47.67
2022-12-22T15:11:37.700Z,45.50
2022-12-22T15:14:05.661Z,47.17
2022-12-22T15:16:32.453Z,50.08
2022-12-22T15:18:59.108Z,46.70
2022-12-22T15:21:25.794Z,49.85
2022-12-22T15:23:52.409Z,54.72
2022-12-22T15:26:19.075Z,50.40
2022-12-22T15:28:45.715Z,51.53
2022-12-22T15:31:15.666Z,59.60
2022-12-22T15:33:43.933Z,57.38
2022-12-22T15:36:12.638Z,55.25
2022-12-22T15:38:40.423Z,49.10
2022-12-22T15:41:08.029Z,55.40
2022-12-22T15:43:57.162Z,55.80
2022-12-22T15:46:24.833Z,51.83
2022-12-22T15:48:51.715Z,53.38
2022-12-22T15:51:23.878Z,58.10
2022-12-22T15:53:51.287Z,64.07
2022-12-22T15:56:22.368Z,59.95
2022-12-22T15:58:49.157Z,60.30
2022-12-22T16:01:15.970Z,58.35
2022-12-22T16:03:42.770Z,55.28
2022-12-22T16:06:19.759Z,52.35
2022-12-22T16:08:49.916Z,54.25
2022-12-22T16:11:17.608Z,53.60
2022-12-22T16:13:44.831Z,53.63
2022-12-22T16:16:12.101Z,55.67
2022-12-22T16:18:38.744Z,55.55
2022-12-22T16:21:08.342Z,56.95
2022-12-22T16:23:36.911Z,56.95
2022-12-22T16:26:04.945Z,58.92
2022-12-22T16:28:33.305Z,56.83
2022-12-22T16:31:01.184Z,57.53
2022-12-22T16:33:27.953Z,55.90
2022-12-22T16:35:54.699Z,56.35
2022-12-22T16:38:21.466Z,54.13
2022-12-22T16:40:51.942Z,55.70
2022-12-22T16:46:17.290Z,59.90
2022-12-22T16:48:51.952Z,61.22
2022-12-22T16:51:24.744Z,59.92
2022-12-22T16:53:51.548Z,64.47
2022-12-22T16:56:21.487Z,65.10
2022-12-22T16:58:48.927Z,67.45
2022-12-22T17:01:32.310Z,67.78
2022-12-22T17:04:04.936Z,67.03
2022-12-22T17:06:32.076Z,67.60
2022-12-22T17:08:58.713Z,69.53
2022-12-22T17:11:29.657Z,67.30
2022-12-22T17:14:06.002Z,71.43
2022-12-22T17:16:32.706Z,72.57
2022-12-22T17:18:59.574Z,70.13
2022-12-22T17:21:29.941Z,66.53
2022-12-22T17:24:04.379Z,70.75
2022-12-22T17:26:33.898Z,64.18
2022-12-22T17:29:00.855Z,52.92
2022-12-22T17:31:27.742Z,48.22
2022-12-22T17:33:54.376Z,47.83
2022-12-22T17:36:39.905Z,45.00
2022-12-22T17:39:12.950Z,50.08
2022-12-22T17:41:40.150Z,47.60
2022-12-22T17:44:06.859Z,46.92
2022-12-22T17:46:33.540Z,49.92
2022-12-22T17:49:00.177Z,51.75
2022-12-22T17:51:29.105Z,54.30
2022-12-22T17:53:58.721Z,56.55
2022-12-22T17:56:27.584Z,57.53
2022-12-22T17:58:54.704Z,58.70
2022-12-22T18:01:27.609Z,68.65
2022-12-22T18:03:55.569Z,74.35
2022-12-22T18:06:29.620Z,57.45
2022-12-22T18:08:57.253Z,59.08
2022-12-22T18:11:24.381Z,64.47
2022-12-22T18:13:52.555Z,60.28
2022-12-22T18:16:21.152Z,61.08
2022-12-22T18:18:47.879Z,59.85
2022-12-22T18:21:25.413Z,59.92
2022-12-22T18:23:52.121Z,58.42
2022-12-22T18:26:27.715Z,63.47
2022-12-22T18:28:55.156Z,55.03
2022-12-22T18:31:22.829Z,58.20
2022-12-22T18:33:50.143Z,57.35
2022-12-22T18:36:18.334Z,55.83
2022-12-22T18:38:46.667Z,53.00
2022-12-22T18:41:24.772Z,59.25
2022-12-22T18:43:51.863Z,64.38
2022-12-22T18:46:19.560Z,66.45
2022-12-22T18:48:47.483Z,83.10
2022-12-22T18:51:23.155Z,83.85
2022-12-22T18:53:52.342Z,97.22
2022-12-22T18:56:19.075Z,86.63
2022-12-22T18:58:46.307Z,82.35
2022-12-22T19:01:24.945Z,76.43
2022-12-22T19:03:54.473Z,73.13
2022-12-22T19:06:22.535Z,76.72
2022-12-22T19:08:49.699Z,73.25
2022-12-22T19:11:18.506Z,72.07
2022-12-22T19:13:51.241Z,70.80
2022-12-22T19:16:21.122Z,71.63
2022-12-22T19:18:47.926Z,73.43
2022-12-22T19:21:16.984Z,89.35
2022-12-22T19:23:43.687Z,95.53
2022-12-22T19:26:26.962Z,90.68
2022-12-22T19:28:57.643Z,91.88
2022-12-22T19:31:30.701Z,94.30
2022-12-22T19:34:00.703Z,91.13
2022-12-22T19:36:30.014Z,89.10
2022-12-22T19:39:04.703Z,92.68
2022-12-22T19:41:44.459Z,99.38
2022-12-22T19:44:26.342Z,101.80
2022-12-22T19:46:54.564Z,85.60
2022-12-22T19:49:27.537Z,90.97
2022-12-22T19:51:57.733Z,94.93
2022-12-22T19:54:25.106Z,99.40
2022-12-22T19:56:55.351Z,93.60
2022-12-22T19:59:38.062Z,84.65
2022-12-22T20:02:30.852Z,83.10
2022-12-22T20:04:58.304Z,71.20
2022-12-22T20:07:27.138Z,85.38
2022-12-22T20:09:53.821Z,102.35
2022-12-22T20:12:37.889Z,112.35
2022-12-22T20:15:38.258Z,113.07
2022-12-22T20:18:19.294Z,123.13
2022-12-22T20:20:57.381Z,132.80
2022-12-22T20:23:25.072Z,155.48
2022-12-22T20:25:58.642Z,188.88
2022-12-22T20:28:43.673Z,228.68
2022-12-22T20:31:14.532Z,296.95
2022-12-22T20:33:41.685Z,346.05
2022-12-22T20:36:26.837Z,298.08
2022-12-22T20:38:57.382Z,287.17
2022-12-22T20:41:24.871Z,254.32
2022-12-22T20:43:53.549Z,227.63
2022-12-22T20:46:24.560Z,251.88
2022-12-22T20:48:57.494Z,266.33
2022-12-22T20:51:27.372Z,218.32
2022-12-22T20:53:55.120Z,198.85
2022-12-22T20:56:29.781Z,152.35
2022-12-22T20:58:57.820Z,153.77
2022-12-22T21:01:24.790Z,183.85
2022-12-22T21:03:51.541Z,149.82
2022-12-22T21:06:33.647Z,176.05
2022-12-22T21:09:01.581Z,174.25
2022-12-22T21:11:29.502Z,175.57
2022-12-22T21:13:57.646Z,174.95
2022-12-22T21:16:27.961Z,189.98
2022-12-22T21:18:54.999Z,175.40
2022-12-22T21:21:22.096Z,190.32
2022-12-22T21:23:48.739Z,222.48
2022-12-22T21:26:25.130Z,227.93
2022-12-22T21:28:53.035Z,241.52
2022-12-22T21:31:19.785Z,237.35
2022-12-22T21:33:47.330Z,193.18
2022-12-22T21:36:23.117Z,195.23
2022-12-22T21:38:54.234Z,205.65
2022-12-22T21:41:41.299Z,195.73
2022-12-22T21:44:08.556Z,160.55
2022-12-22T21:46:35.552Z,162.98
2022-12-22T21:49:02.268Z,163.55
2022-12-22T21:51:28.889Z,159.80
2022-12-22T21:53:55.539Z,157.13
2022-12-22T21:56:22.182Z,146.80
2022-12-22T21:58:48.775Z,168.48
2022-12-22T22:01:16.592Z,189.77
2022-12-22T22:03:43.504Z,191.15
2022-12-22T22:06:10.836Z,176.25
2022-12-22T22:08:37.556Z,177.05
2022-12-22T22:11:04.384Z,175.35
2022-12-22T22:13:31.492Z,165.88
2022-12-22T22:15:59.375Z,170.07
2022-12-22T22:18:26.015Z,156.57
2022-12-22T22:20:52.760Z,161.02
2022-12-22T22:23:19.448Z,162.45
2022-12-22T22:25:46.357Z,121.35
2022-12-22T22:28:12.992Z,110.40
2022-12-22T22:30:42.093Z,136.88
2022-12-22T22:33:10.501Z,131.07
2022-12-22T22:35:40.544Z,116.78
2022-12-22T22:38:12.083Z,114.78
2022-12-22T22:40:38.768Z,154.48
2022-12-22T22:43:05.385Z,160.68
2022-12-22T22:45:32.373Z,161.43
2022-12-22T22:47:59.026Z,149.20
2022-12-22T22:50:25.765Z,153.65
2022-12-22T22:52:52.766Z,160.32
2022-12-22T22:55:19.588Z,156.18
2022-12-22T22:57:46.328Z,154.93
2022-12-22T23:00:16.247Z,149.00
2022-12-22T23:02:43.973Z,150.57
2022-12-22T23:05:16.969Z,143.88
2022-12-22T23:07:47.197Z,149.65
2022-12-22T23:10:13.889Z,149.30
2022-12-22T23:12:40.478Z,134.10
2022-12-22T23:15:07.848Z,149.93
2022-12-22T23:17:34.829Z,155.23
2022-12-22T23:20:02.521Z,133.70
2022-12-22T23:22:29.263Z,140.80
2022-12-22T23:24:55.782Z,135.25
2022-12-22T23:27:23.057Z,130.93
2022-12-22T23:29:49.908Z,128.98
2022-12-22T23:32:16.530Z,122.15
2022-12-22T23:34:43.608Z,152.95
2022-12-22T23:37:17.201Z,143.80
2022-12-22T23:39:45.836Z,121.70
2022-12-22T23:42:12.472Z,112.35
2022-12-22T23:44:39.004Z,125.50
2022-12-22T23:47:05.579Z,116.32
2022-12-22T23:49:32.283Z,128.15
2022-12-22T23:51:58.829Z,118.85
2022-12-22T23:54:25.459Z,125.63
2022-12-22T23:56:52.123Z,128.52
2022-12-22T23:59:18.763Z,128.02
